createdAt,value
2017-09-13T00:00:24.443Z,956.8
2017-09-13T00:01:24.462Z,956.74
2017-09-13T00:02:24.480Z,956.77
2017-09-13T00:03:24.502Z,956.75
2017-09-13T00:04:24.526Z,956.75
2017-09-13T00:05:24.541Z,956.71
2017-09-13T00:06:24.576Z,956.69
2017-09-13T00:07:24.631Z,956.65
2017-09-13T00:08:24.603Z,956.66
2017-09-13T00:09:24.622Z,956.65
2017-09-13T00:10:24.643Z,956.66
2017-09-13T00:11:24.664Z,956.64
2017-09-13T00:12:24.682Z,956.59
2017-09-13T00:13:24.702Z,956.57
2017-09-13T00:14:24.730Z,956.56
2017-09-13T00:15:24.773Z,956.51
2017-09-13T00:16:24.762Z,956.49
2017-09-13T00:17:24.784Z,956.47
2017-09-13T00:18:24.804Z,956.48
2017-09-13T00:19:24.822Z,956.47
2017-09-13T00:20:24.843Z,956.47
2017-09-13T00:21:24.863Z,956.49
2017-09-13T00:22:24.885Z,956.45
2017-09-13T00:23:24.959Z,956.46
2017-09-13T00:24:24.946Z,956.47
2017-09-13T00:25:24.944Z,956.48
2017-09-13T00:26:24.966Z,956.5
2017-09-13T00:27:24.983Z,956.51
2017-09-13T00:28:25.004Z,956.51
2017-09-13T00:29:25.024Z,956.48
2017-09-13T00:30:25.245Z,956.49
2017-09-13T00:31:25.063Z,956.51
2017-09-13T00:32:25.084Z,956.51
2017-09-13T00:33:25.102Z,956.57
2017-09-13T00:34:25.121Z,956.58
2017-09-13T00:35:25.141Z,956.55
2017-09-13T00:36:25.161Z,956.59
2017-09-13T00:37:25.182Z,956.54
2017-09-13T00:38:25.251Z,956.55
2017-09-13T00:39:25.225Z,956.57
2017-09-13T00:40:25.243Z,956.58
2017-09-13T00:41:25.267Z,956.56
2017-09-13T00:42:25.280Z,956.53
2017-09-13T00:43:25.301Z,956.53
2017-09-13T00:44:25.321Z,956.54
2017-09-13T00:45:25.341Z,956.55
2017-09-13T00:46:25.364Z,956.57
2017-09-13T00:47:25.381Z,956.54
2017-09-13T00:48:25.401Z,956.56
2017-09-13T00:49:25.427Z,956.53
2017-09-13T00:50:25.440Z,956.53
2017-09-13T00:51:25.466Z,956.53
2017-09-13T00:52:25.479Z,956.56
2017-09-13T00:53:25.549Z,956.53
2017-09-13T00:54:25.522Z,956.52
2017-09-13T00:55:25.538Z,956.51
2017-09-13T00:56:25.557Z,956.51
2017-09-13T00:57:25.581Z,956.47
2017-09-13T00:58:25.597Z,956.51
2017-09-13T00:59:25.623Z,956.46
2017-09-13T01:00:25.644Z,956.42
2017-09-13T01:01:25.660Z,956.46
2017-09-13T01:02:25.681Z,956.45
2017-09-13T01:03:25.702Z,956.4
2017-09-13T01:04:25.715Z,956.43
2017-09-13T01:05:25.738Z,956.43
2017-09-13T01:06:25.756Z,956.45
2017-09-13T01:07:25.775Z,956.47
2017-09-13T01:08:25.805Z,956.52
2017-09-13T01:09:25.865Z,956.53
2017-09-13T01:10:25.836Z,956.55
2017-09-13T01:11:25.852Z,956.53
2017-09-13T01:12:25.876Z,956.53
2017-09-13T01:13:25.915Z,956.54
2017-09-13T01:14:25.915Z,956.52
2017-09-13T01:15:25.932Z,956.53
2017-09-13T01:16:25.952Z,956.52
2017-09-13T01:17:25.971Z,956.46
2017-09-13T01:18:25.991Z,956.45
2017-09-13T01:19:26.013Z,956.44
2017-09-13T01:20:26.037Z,956.46
2017-09-13T01:21:26.052Z,956.45
2017-09-13T01:22:26.071Z,956.46
2017-09-13T01:23:26.092Z,956.42
2017-09-13T01:24:26.161Z,956.43
2017-09-13T01:25:26.130Z,956.41
2017-09-13T01:26:26.150Z,956.42
2017-09-13T01:27:26.171Z,956.36
2017-09-13T01:28:26.189Z,956.4
2017-09-13T01:29:26.208Z,956.32
2017-09-13T01:30:26.227Z,956.31
2017-09-13T01:31:26.246Z,956.34
2017-09-13T01:32:26.266Z,956.39
2017-09-13T01:33:26.284Z,956.36
2017-09-13T01:34:26.313Z,956.39
2017-09-13T01:35:26.327Z,956.41
2017-09-13T01:36:26.349Z,956.35
2017-09-13T01:37:26.365Z,956.38
2017-09-13T01:38:26.390Z,956.38
2017-09-13T01:39:26.453Z,956.33
2017-09-13T01:40:26.422Z,956.29
2017-09-13T01:41:26.441Z,956.29
2017-09-13T01:42:26.462Z,956.31
2017-09-13T01:43:26.480Z,956.3
2017-09-13T01:44:26.502Z,956.27
2017-09-13T01:45:26.525Z,956.24
2017-09-13T01:46:26.542Z,956.26
2017-09-13T01:47:26.560Z,956.27
2017-09-13T01:48:26.583Z,956.19
2017-09-13T01:49:26.601Z,956.21
2017-09-13T01:50:26.618Z,956.22
2017-09-13T01:51:26.637Z,956.18
2017-09-13T01:52:26.658Z,956.19
2017-09-13T01:53:26.681Z,956.18
2017-09-13T01:54:26.695Z,956.17
2017-09-13T01:55:26.715Z,956.18
2017-09-13T01:56:26.733Z,956.15
2017-09-13T01:57:26.812Z,956.15
2017-09-13T01:58:26.772Z,956.17
2017-09-13T01:59:26.792Z,956.14
2017-09-13T02:00:26.816Z,956.1
2017-09-13T02:01:26.831Z,956.08
2017-09-13T02:02:26.851Z,956.12
2017-09-13T02:03:26.868Z,956.03
2017-09-13T02:04:26.891Z,956.02
2017-09-13T02:05:26.906Z,956.06
2017-09-13T02:06:26.925Z,955.99
2017-09-13T02:07:26.945Z,956
2017-09-13T02:08:26.966Z,956.02
2017-09-13T02:09:26.985Z,955.98
2017-09-13T02:10:27.003Z,955.91
2017-09-13T02:11:27.024Z,955.97
2017-09-13T02:12:27.092Z,955.94
2017-09-13T02:13:27.060Z,955.92
2017-09-13T02:14:27.101Z,955.89
2017-09-13T02:15:27.099Z,955.96
2017-09-13T02:16:27.118Z,955.94
2017-09-13T02:17:27.140Z,955.93
2017-09-13T02:18:27.165Z,955.87
2017-09-13T02:19:27.175Z,955.87
2017-09-13T02:20:27.204Z,955.86
2017-09-13T02:21:27.213Z,955.88
2017-09-13T02:22:27.232Z,955.83
2017-09-13T02:23:27.253Z,955.77
2017-09-13T02:24:27.270Z,955.77
2017-09-13T02:25:27.295Z,955.79
2017-09-13T02:26:27.310Z,955.77
2017-09-13T02:27:27.328Z,955.75
2017-09-13T02:28:27.348Z,955.74
2017-09-13T02:29:27.370Z,955.71
2017-09-13T02:30:27.385Z,955.71
2017-09-13T02:31:27.404Z,955.74
2017-09-13T02:32:27.422Z,955.69
2017-09-13T02:33:27.445Z,955.75
2017-09-13T02:34:27.463Z,955.7
2017-09-13T02:35:27.483Z,955.67
2017-09-13T02:36:27.501Z,955.65
2017-09-13T02:37:27.672Z,955.66
2017-09-13T02:38:27.618Z,955.61
2017-09-13T02:39:27.556Z,955.58
2017-09-13T02:40:27.622Z,955.59
2017-09-13T02:41:27.601Z,955.56
2017-09-13T02:42:27.626Z,955.56
2017-09-13T02:43:27.638Z,955.54
2017-09-13T02:44:27.654Z,955.53
2017-09-13T02:45:27.675Z,955.52
2017-09-13T02:46:27.691Z,955.52
2017-09-13T02:47:27.710Z,955.49
2017-09-13T02:48:27.729Z,955.49
2017-09-13T02:49:27.748Z,955.52
2017-09-13T02:50:27.772Z,955.47
2017-09-13T02:51:27.788Z,955.47
2017-09-13T02:52:27.809Z,955.44
2017-09-13T02:53:27.831Z,955.45
2017-09-13T02:54:27.869Z,955.39
2017-09-13T02:55:29.117Z,955.4
2017-09-13T02:56:27.889Z,955.37
2017-09-13T02:57:27.909Z,955.37
2017-09-13T02:58:27.926Z,955.37
2017-09-13T02:59:27.943Z,955.35
2017-09-13T03:00:27.965Z,955.31
2017-09-13T03:01:27.979Z,955.31
2017-09-13T03:02:28.001Z,955.31
2017-09-13T03:03:28.018Z,955.33
2017-09-13T03:04:28.037Z,955.31
2017-09-13T03:05:28.060Z,955.3
2017-09-13T03:06:28.075Z,955.26
2017-09-13T03:07:28.095Z,955.26
2017-09-13T03:08:28.115Z,955.22
2017-09-13T03:09:28.133Z,955.2
2017-09-13T03:10:28.164Z,955.21
2017-09-13T03:11:28.173Z,955.2
2017-09-13T03:12:28.193Z,955.22
2017-09-13T03:13:28.213Z,955.25
2017-09-13T03:14:28.233Z,955.23
2017-09-13T03:15:28.250Z,955.23
2017-09-13T03:16:28.268Z,955.19
2017-09-13T03:17:28.313Z,955.14
2017-09-13T03:18:28.311Z,955.2
2017-09-13T03:19:28.327Z,955.23
2017-09-13T03:20:28.347Z,955.17
2017-09-13T03:21:28.367Z,955.2
2017-09-13T03:22:28.385Z,955.17
2017-09-13T03:23:28.405Z,955.16
2017-09-13T03:24:28.424Z,955.17
2017-09-13T03:25:28.444Z,955.12
2017-09-13T03:26:28.462Z,955.1
2017-09-13T03:27:28.482Z,955.13
2017-09-13T03:28:28.501Z,955.09
2017-09-13T03:29:28.575Z,955.09
2017-09-13T03:30:28.547Z,955.06
2017-09-13T03:31:28.562Z,955.01
2017-09-13T03:32:28.578Z,954.99
2017-09-13T03:33:28.597Z,954.97
2017-09-13T03:34:28.617Z,954.96
2017-09-13T03:35:28.635Z,954.96
2017-09-13T03:36:28.653Z,954.99
2017-09-13T03:37:28.673Z,955
2017-09-13T03:38:28.698Z,954.94
2017-09-13T03:39:28.712Z,954.96
2017-09-13T03:40:28.732Z,954.89
2017-09-13T03:41:28.755Z,954.93
2017-09-13T03:42:28.770Z,954.95
2017-09-13T03:43:28.790Z,954.91
2017-09-13T03:44:28.807Z,954.92
2017-09-13T03:45:28.834Z,954.91
2017-09-13T03:46:28.852Z,954.91
2017-09-13T03:47:28.918Z,954.9
2017-09-13T03:48:28.885Z,954.85
2017-09-13T03:49:28.905Z,954.86
2017-09-13T03:50:28.924Z,954.88
2017-09-13T03:51:28.945Z,954.87
2017-09-13T03:52:28.969Z,954.86
2017-09-13T03:53:28.982Z,954.85
2017-09-13T03:54:29.002Z,954.83
2017-09-13T03:55:29.019Z,954.79
2017-09-13T03:56:29.039Z,954.79
2017-09-13T03:57:29.058Z,954.78
2017-09-13T03:58:29.080Z,954.77
2017-09-13T03:59:29.100Z,954.79
2017-09-13T04:00:29.120Z,954.75
2017-09-13T04:01:29.137Z,954.75
2017-09-13T04:02:29.207Z,954.67
2017-09-13T04:03:29.173Z,954.64
2017-09-13T04:04:29.193Z,954.64
2017-09-13T04:05:29.213Z,954.69
2017-09-13T04:06:29.231Z,954.62
2017-09-13T04:07:29.251Z,954.68
2017-09-13T04:08:29.272Z,954.71
2017-09-13T04:09:29.295Z,954.68
2017-09-13T04:10:29.309Z,954.62
2017-09-13T04:11:29.330Z,954.57
2017-09-13T04:12:29.349Z,954.57
2017-09-13T04:13:29.366Z,954.51
2017-09-13T04:14:29.389Z,954.47
2017-09-13T04:15:29.405Z,954.45
2017-09-13T04:16:29.430Z,954.47
2017-09-13T04:17:29.496Z,954.43
2017-09-13T04:18:29.469Z,954.42
2017-09-13T04:19:29.484Z,954.41
2017-09-13T04:20:29.505Z,954.37
2017-09-13T04:21:29.526Z,954.34
2017-09-13T04:22:29.545Z,954.3
2017-09-13T04:23:29.561Z,954.24
2017-09-13T04:24:29.583Z,954.27
2017-09-13T04:25:29.598Z,954.23
2017-09-13T04:26:29.618Z,954.19
2017-09-13T04:27:29.639Z,954.2
2017-09-13T04:28:29.655Z,954.24
2017-09-13T04:29:29.676Z,954.22
2017-09-13T04:30:29.697Z,954.2
2017-09-13T04:31:29.736Z,954.23
2017-09-13T04:32:29.786Z,954.19
2017-09-13T04:33:29.756Z,954.18
2017-09-13T04:34:29.774Z,954.22
2017-09-13T04:35:29.792Z,954.22
2017-09-13T04:36:29.811Z,954.24
2017-09-13T04:37:29.831Z,954.26
2017-09-13T04:38:29.848Z,954.32
2017-09-13T04:39:29.869Z,954.28
2017-09-13T04:40:29.892Z,954.27
2017-09-13T04:41:29.907Z,954.28
2017-09-13T04:42:29.926Z,954.26
2017-09-13T04:43:29.945Z,954.25
2017-09-13T04:44:29.963Z,954.21
2017-09-13T04:45:29.985Z,954.15
2017-09-13T04:46:30.024Z,954.1
2017-09-13T04:47:30.028Z,954.11
2017-09-13T04:48:30.046Z,954.1
2017-09-13T04:49:30.110Z,954.1
2017-09-13T04:50:30.079Z,954.08
2017-09-13T04:51:30.098Z,954.07
2017-09-13T04:52:30.121Z,954.13
2017-09-13T04:53:30.136Z,954.11
2017-09-13T04:54:30.158Z,954.11
2017-09-13T04:55:30.183Z,954.14
2017-09-13T04:56:30.200Z,954.15
2017-09-13T04:57:30.214Z,954.19
2017-09-13T04:58:30.234Z,954.1
2017-09-13T04:59:30.253Z,954.12
2017-09-13T05:00:30.273Z,954.08
2017-09-13T05:01:30.306Z,954.09
2017-09-13T05:02:30.310Z,954.09
2017-09-13T05:03:30.330Z,954.07
2017-09-13T05:04:30.404Z,954.06
2017-09-13T05:05:30.367Z,954.08
2017-09-13T05:06:30.388Z,954.12
2017-09-13T05:07:30.407Z,954.08
2017-09-13T05:08:30.424Z,954.12
2017-09-13T05:09:30.446Z,954.13
2017-09-13T05:10:30.465Z,954.16
2017-09-13T05:11:30.481Z,954.19
2017-09-13T05:12:30.502Z,954.17
2017-09-13T05:13:30.519Z,954.18
2017-09-13T05:14:30.590Z,954.19
2017-09-13T05:15:30.557Z,954.19
2017-09-13T05:16:30.592Z,954.18
2017-09-13T05:17:30.597Z,954.19
2017-09-13T05:18:30.616Z,954.17
2017-09-13T05:19:30.684Z,954.1
2017-09-13T05:20:30.656Z,954.14
2017-09-13T05:21:30.674Z,954.09
2017-09-13T05:22:30.692Z,954.11
2017-09-13T05:23:30.712Z,954.07
2017-09-13T05:24:30.731Z,954.07
2017-09-13T05:25:30.751Z,954.1
2017-09-13T05:26:30.768Z,954.14
2017-09-13T05:27:30.786Z,954.14
2017-09-13T05:28:30.807Z,954.15
2017-09-13T05:29:30.826Z,954.16
2017-09-13T05:30:30.845Z,954.16
2017-09-13T05:31:30.879Z,954.14
2017-09-13T05:32:30.886Z,954.17
2017-09-13T05:33:30.904Z,954.14
2017-09-13T05:34:30.924Z,954.12
2017-09-13T05:35:30.940Z,954.15
2017-09-13T05:36:30.961Z,954.1
2017-09-13T05:37:31.029Z,954.07
2017-09-13T05:38:30.998Z,954.05
2017-09-13T05:39:31.021Z,954.03
2017-09-13T05:40:31.037Z,954.04
2017-09-13T05:41:31.056Z,954.02
2017-09-13T05:42:31.076Z,954.01
2017-09-13T05:43:31.096Z,954.03
2017-09-13T05:44:31.116Z,954.02
2017-09-13T05:45:31.133Z,954
2017-09-13T05:46:31.164Z,953.99
2017-09-13T05:47:31.174Z,953.98
2017-09-13T05:48:31.191Z,953.97
2017-09-13T05:49:31.216Z,953.96
2017-09-13T05:50:31.230Z,954.02
2017-09-13T05:51:31.253Z,954.06
2017-09-13T05:52:31.274Z,954.06
2017-09-13T05:53:31.298Z,954.05
2017-09-13T05:54:31.333Z,954.01
2017-09-13T05:55:31.330Z,953.99
2017-09-13T05:56:31.396Z,953.93
2017-09-13T05:57:31.365Z,954
2017-09-13T05:58:31.386Z,954.01
2017-09-13T05:59:31.414Z,954
2017-09-13T06:00:31.425Z,954
2017-09-13T06:01:31.452Z,953.98
2017-09-13T06:02:31.465Z,953.95
2017-09-13T06:03:31.485Z,953.92
2017-09-13T06:04:31.510Z,953.9
2017-09-13T06:05:31.524Z,953.91
2017-09-13T06:06:31.543Z,953.93
2017-09-13T06:07:31.617Z,953.95
2017-09-13T06:08:31.582Z,954.02
2017-09-13T06:09:31.602Z,954.01
2017-09-13T06:10:31.621Z,953.98
2017-09-13T06:11:31.641Z,953.92
2017-09-13T06:12:31.670Z,953.95
2017-09-13T06:13:31.690Z,953.9
2017-09-13T06:14:31.702Z,953.85
2017-09-13T06:15:31.721Z,953.83
2017-09-13T06:16:31.747Z,953.81
2017-09-13T06:17:31.811Z,953.8
2017-09-13T06:18:31.780Z,953.79
2017-09-13T06:19:31.801Z,953.79
2017-09-13T06:20:31.822Z,953.78
2017-09-13T06:21:31.840Z,953.75
2017-09-13T06:22:31.862Z,953.68
2017-09-13T06:23:31.881Z,953.7
2017-09-13T06:24:31.902Z,953.68
2017-09-13T06:25:31.926Z,953.69
2017-09-13T06:26:31.942Z,953.66
2017-09-13T06:27:31.963Z,953.71
2017-09-13T06:28:31.983Z,953.74
2017-09-13T06:29:32.004Z,953.77
2017-09-13T06:30:32.026Z,953.79
2017-09-13T06:31:32.045Z,953.79
2017-09-13T06:32:32.063Z,953.74
2017-09-13T06:33:32.134Z,953.69
2017-09-13T06:34:32.106Z,953.68
2017-09-13T06:35:32.126Z,953.64
2017-09-13T06:36:32.149Z,953.6
2017-09-13T06:37:32.168Z,953.67
2017-09-13T06:38:32.251Z,953.6
2017-09-13T06:39:32.208Z,953.61
2017-09-13T06:40:32.231Z,953.68
2017-09-13T06:41:32.250Z,953.63
2017-09-13T06:42:32.272Z,953.63
2017-09-13T06:43:32.294Z,953.65
2017-09-13T06:44:32.312Z,953.61
2017-09-13T06:45:32.335Z,953.61
2017-09-13T06:46:32.354Z,953.63
2017-09-13T06:47:32.373Z,953.59
2017-09-13T06:48:32.451Z,953.62
2017-09-13T06:49:32.416Z,953.55
2017-09-13T06:50:32.437Z,953.55
2017-09-13T06:51:32.458Z,953.6
2017-09-13T06:52:32.479Z,953.61
2017-09-13T06:53:32.499Z,953.63
2017-09-13T06:54:32.526Z,953.57
2017-09-13T06:55:32.542Z,953.57
2017-09-13T06:56:32.562Z,953.58
2017-09-13T06:57:32.583Z,953.54
2017-09-13T06:58:32.609Z,953.59
2017-09-13T06:59:32.626Z,953.6
2017-09-13T07:00:32.648Z,953.57
2017-09-13T07:01:32.668Z,953.55
2017-09-13T07:02:32.690Z,953.52
2017-09-13T07:03:32.713Z,953.52
2017-09-13T07:04:32.732Z,953.54
2017-09-13T07:05:32.953Z,953.47
2017-09-13T07:06:32.774Z,953.53
2017-09-13T07:07:32.795Z,953.44
2017-09-13T07:08:32.818Z,953.44
2017-09-13T07:09:32.841Z,953.43
2017-09-13T07:10:32.861Z,953.45
2017-09-13T07:11:32.882Z,953.48
2017-09-13T07:12:32.904Z,953.39
2017-09-13T07:13:32.926Z,953.36
2017-09-13T07:14:32.944Z,953.33
2017-09-13T07:15:32.968Z,953.29
2017-09-13T07:16:32.987Z,953.27
2017-09-13T07:17:33.030Z,953.3
2017-09-13T07:18:33.034Z,953.29
2017-09-13T07:19:33.054Z,953.31
2017-09-13T07:20:33.074Z,953.25
2017-09-13T07:21:33.096Z,953.19
2017-09-13T07:22:33.118Z,953.21
2017-09-13T07:23:33.140Z,953.16
2017-09-13T07:24:33.159Z,953.12
2017-09-13T07:25:33.181Z,953.19
2017-09-13T07:26:33.202Z,953.17
2017-09-13T07:27:33.224Z,953.22
2017-09-13T07:28:33.246Z,953.17
2017-09-13T07:29:33.270Z,953.1
2017-09-13T07:30:33.290Z,953.12
2017-09-13T07:31:33.311Z,953.09
2017-09-13T07:32:33.340Z,953.09
2017-09-13T07:33:33.354Z,953.08
2017-09-13T07:34:33.380Z,953.05
2017-09-13T07:35:33.399Z,953.06
2017-09-13T07:36:33.419Z,953.03
2017-09-13T07:37:33.491Z,953.05
2017-09-13T07:38:33.467Z,952.98
2017-09-13T07:39:33.484Z,953.02
2017-09-13T07:40:33.507Z,953.02
2017-09-13T07:41:33.527Z,953.07
2017-09-13T07:42:33.550Z,953.07
2017-09-13T07:43:33.572Z,953.09
2017-09-13T07:44:33.593Z,953.18
2017-09-13T07:45:33.618Z,953.11
2017-09-13T07:46:33.638Z,953.15
2017-09-13T07:47:33.658Z,953.09
2017-09-13T07:48:33.681Z,953.02
2017-09-13T07:49:33.701Z,952.99
2017-09-13T07:50:33.726Z,952.93
2017-09-13T07:51:33.747Z,952.9
2017-09-13T07:52:33.767Z,952.85
2017-09-13T07:53:33.788Z,952.85
2017-09-13T07:54:33.819Z,952.8
2017-09-13T07:55:33.841Z,952.72
2017-09-13T07:56:33.906Z,952.79
2017-09-13T07:57:33.876Z,952.79
2017-09-13T07:58:33.898Z,952.75
2017-09-13T07:59:33.925Z,952.9
2017-09-13T08:00:33.939Z,952.9
2017-09-13T08:01:33.961Z,952.91
2017-09-13T08:02:33.986Z,952.91
2017-09-13T08:03:34.008Z,952.92
2017-09-13T08:04:34.039Z,952.85
2017-09-13T08:05:34.051Z,952.9
2017-09-13T08:06:34.073Z,952.88
2017-09-13T08:07:34.094Z,952.79
2017-09-13T08:08:34.117Z,952.73
2017-09-13T08:09:34.139Z,952.88
2017-09-13T08:10:34.169Z,952.84
2017-09-13T08:11:34.182Z,952.96
2017-09-13T08:12:34.206Z,952.89
2017-09-13T08:13:34.228Z,952.78
2017-09-13T08:14:34.248Z,952.73
2017-09-13T08:15:34.271Z,952.59
2017-09-13T08:16:34.294Z,952.66
2017-09-13T08:17:34.315Z,952.74
2017-09-13T08:18:34.337Z,952.7
2017-09-13T08:19:34.361Z,952.69
2017-09-13T08:20:34.383Z,952.76
2017-09-13T08:21:34.404Z,952.77
2017-09-13T08:22:34.425Z,952.74
2017-09-13T08:23:34.446Z,952.74
2017-09-13T08:24:34.469Z,952.73
2017-09-13T08:25:34.491Z,952.77
2017-09-13T08:26:34.516Z,952.72
2017-09-13T08:27:34.537Z,952.67
2017-09-13T08:28:34.559Z,952.68
2017-09-13T08:29:34.579Z,952.6
2017-09-13T08:30:34.607Z,952.67
2017-09-13T08:31:34.676Z,952.59
2017-09-13T08:32:34.652Z,952.53
2017-09-13T08:33:34.669Z,952.54
2017-09-13T08:34:34.692Z,952.55
2017-09-13T08:35:34.718Z,952.43
2017-09-13T08:36:34.737Z,952.46
2017-09-13T08:37:34.759Z,952.39
2017-09-13T08:38:34.784Z,952.39
2017-09-13T08:39:34.804Z,952.43
2017-09-13T08:40:34.828Z,952.47
2017-09-13T08:41:34.849Z,952.54
2017-09-13T08:42:34.874Z,952.51
2017-09-13T08:43:34.892Z,952.51
2017-09-13T08:44:34.911Z,952.51
2017-09-13T08:45:34.936Z,952.48
2017-09-13T08:46:35.010Z,952.54
2017-09-13T08:47:34.982Z,952.61
2017-09-13T08:48:35.056Z,952.51
2017-09-13T08:49:35.024Z,952.49
2017-09-13T08:50:35.046Z,952.57
2017-09-13T08:51:35.118Z,952.54
2017-09-13T08:52:35.091Z,952.52
2017-09-13T08:53:35.114Z,952.51
2017-09-13T08:54:35.135Z,952.5
2017-09-13T08:55:35.157Z,952.48
2017-09-13T08:56:35.183Z,952.48
2017-09-13T08:57:35.203Z,952.47
2017-09-13T08:58:35.226Z,952.44
2017-09-13T08:59:35.246Z,952.44
2017-09-13T09:00:35.271Z,952.49
2017-09-13T09:01:35.300Z,952.43
2017-09-13T09:02:35.315Z,952.48
2017-09-13T09:03:35.337Z,952.4
2017-09-13T09:04:35.359Z,952.41
2017-09-13T09:05:35.384Z,952.4
2017-09-13T09:06:35.409Z,952.41
2017-09-13T09:07:35.432Z,952.35
2017-09-13T09:08:35.455Z,952.36
2017-09-13T09:09:35.474Z,952.29
2017-09-13T09:10:35.502Z,952.31
2017-09-13T09:11:35.520Z,952.26
2017-09-13T09:12:35.553Z,952.3
2017-09-13T09:13:35.564Z,952.27
2017-09-13T09:14:35.592Z,952.24
2017-09-13T09:15:35.615Z,952.3
2017-09-13T09:16:35.632Z,952.25
2017-09-13T09:17:35.655Z,952.21
2017-09-13T09:18:35.684Z,952.2
2017-09-13T09:19:35.708Z,952.18
2017-09-13T09:20:35.724Z,952.22
2017-09-13T09:21:35.747Z,952.24
2017-09-13T09:22:35.772Z,952.16
2017-09-13T09:23:35.796Z,952.14
2017-09-13T09:24:35.816Z,952.16
2017-09-13T09:25:35.841Z,952.1
2017-09-13T09:26:35.865Z,952.09
2017-09-13T09:27:35.944Z,952.13
2017-09-13T09:28:35.915Z,952.1
2017-09-13T09:29:35.943Z,952.06
2017-09-13T09:30:35.963Z,952.1
2017-09-13T09:31:35.981Z,952.07
2017-09-13T09:32:36.061Z,952.07
2017-09-13T09:33:36.030Z,952.1
2017-09-13T09:34:36.057Z,952.09
2017-09-13T09:35:36.080Z,952.08
2017-09-13T09:36:36.098Z,952.14
2017-09-13T09:37:36.125Z,952.15
2017-09-13T09:38:36.150Z,952.15
2017-09-13T09:39:36.171Z,952.1
2017-09-13T09:40:36.200Z,952.07
2017-09-13T09:41:36.222Z,952.02
2017-09-13T09:42:36.242Z,952.03
2017-09-13T09:43:36.277Z,952.08
2017-09-13T09:44:36.298Z,952.04
2017-09-13T09:45:36.367Z,952
2017-09-13T09:46:36.341Z,951.98
2017-09-13T09:47:36.363Z,951.95
2017-09-13T09:48:36.397Z,951.97
2017-09-13T09:49:36.421Z,951.97
2017-09-13T09:50:36.436Z,951.97
2017-09-13T09:51:36.488Z,952.03
2017-09-13T09:52:36.496Z,951.97
2017-09-13T09:53:36.517Z,952
2017-09-13T09:54:36.534Z,952.05
2017-09-13T09:55:36.558Z,951.99
2017-09-13T09:56:36.584Z,951.93
2017-09-13T09:57:36.610Z,951.93
2017-09-13T09:58:36.631Z,951.93
2017-09-13T09:59:36.657Z,952.02
2017-09-13T10:00:36.682Z,952.02
2017-09-13T10:01:36.705Z,951.98
2017-09-13T10:02:36.742Z,951.96
2017-09-13T10:03:36.755Z,951.98
2017-09-13T10:04:36.777Z,952.01
2017-09-13T10:05:36.808Z,952.04
2017-09-13T10:06:36.826Z,952.09
2017-09-13T10:07:36.852Z,952.12
2017-09-13T10:08:36.876Z,952.08
2017-09-13T10:09:36.899Z,952.07
2017-09-13T10:10:36.927Z,952.14
2017-09-13T10:11:36.951Z,952.22
2017-09-13T10:12:36.972Z,952.19
2017-09-13T10:13:37.033Z,952.19
2017-09-13T10:14:37.028Z,952.1
2017-09-13T10:15:37.046Z,952.19
2017-09-13T10:16:37.077Z,952.27
2017-09-13T10:17:37.164Z,952.23
2017-09-13T10:18:37.122Z,952.21
2017-09-13T10:19:37.178Z,952.24
2017-09-13T10:20:37.176Z,952.22
2017-09-13T10:21:37.203Z,952.2
2017-09-13T10:22:37.225Z,952.29
2017-09-13T10:23:37.275Z,952.24
2017-09-13T10:24:37.273Z,952.34
2017-09-13T10:25:37.299Z,952.29
2017-09-13T10:26:37.327Z,952.31
2017-09-13T10:27:37.354Z,952.24
2017-09-13T10:28:37.376Z,952.22
2017-09-13T10:29:37.402Z,952.27
2017-09-13T10:30:37.435Z,952.34
2017-09-13T10:31:37.446Z,952.32
2017-09-13T10:32:37.476Z,952.3
2017-09-13T10:33:37.502Z,952.29
2017-09-13T10:34:37.527Z,952.25
2017-09-13T10:35:37.545Z,952.24
2017-09-13T10:36:37.620Z,952.26
2017-09-13T10:37:37.597Z,952.15
2017-09-13T10:38:37.617Z,952.24
2017-09-13T10:39:37.642Z,952.2
2017-09-13T10:40:37.666Z,952.18
2017-09-13T10:41:37.689Z,952.18
2017-09-13T10:42:37.717Z,952.12
2017-09-13T10:43:37.738Z,952.13
2017-09-13T10:44:37.762Z,952.11
2017-09-13T10:45:37.782Z,952.09
2017-09-13T10:46:37.807Z,952.09
2017-09-13T10:47:37.829Z,952.09
2017-09-13T10:48:37.853Z,952.1
2017-09-13T10:49:37.876Z,952.05
2017-09-13T10:50:37.899Z,952.04
2017-09-13T10:51:37.972Z,952.06
2017-09-13T10:52:37.947Z,952.09
2017-09-13T10:53:37.970Z,951.96
2017-09-13T10:54:37.993Z,951.98
2017-09-13T10:55:38.017Z,952.08
2017-09-13T10:56:38.044Z,952.04
2017-09-13T10:57:38.061Z,952.05
2017-09-13T10:58:38.083Z,952.05
2017-09-13T10:59:38.108Z,952.08
2017-09-13T11:00:38.132Z,952.02
2017-09-13T11:01:38.160Z,952.16
2017-09-13T11:02:38.174Z,952.04
2017-09-13T11:03:38.196Z,952.04
2017-09-13T11:04:38.220Z,952.07
2017-09-13T11:05:38.243Z,952.04
2017-09-13T11:06:38.268Z,952.02
2017-09-13T11:07:38.288Z,952.06
2017-09-13T11:08:38.310Z,952.05
2017-09-13T11:09:38.334Z,952.04
2017-09-13T11:10:38.406Z,952.1
2017-09-13T11:11:38.382Z,952.07
2017-09-13T11:12:38.402Z,952.12
2017-09-13T11:13:38.428Z,952.06
2017-09-13T11:14:38.447Z,952.13
2017-09-13T11:15:38.469Z,952.15
2017-09-13T11:16:38.491Z,952.2
2017-09-13T11:17:38.515Z,952.12
2017-09-13T11:18:38.538Z,952.21
2017-09-13T11:19:38.559Z,952.22
2017-09-13T11:20:38.585Z,952.2
2017-09-13T11:21:38.606Z,952.21
2017-09-13T11:22:38.628Z,952.14
2017-09-13T11:23:38.651Z,952.09
2017-09-13T11:24:38.674Z,952.11
2017-09-13T11:25:38.699Z,952.13
2017-09-13T11:26:38.720Z,952.14
2017-09-13T11:27:38.794Z,952.09
2017-09-13T11:28:38.768Z,952.04
2017-09-13T11:29:38.793Z,952.05
2017-09-13T11:30:38.814Z,951.95
2017-09-13T11:31:38.842Z,952.03
2017-09-13T11:32:38.887Z,951.97
2017-09-13T11:33:38.883Z,952.02
2017-09-13T11:34:38.912Z,951.91
2017-09-13T11:35:38.932Z,951.9
2017-09-13T11:36:38.957Z,951.93
2017-09-13T11:37:38.981Z,951.94
2017-09-13T11:38:39.005Z,952.02
2017-09-13T11:39:39.028Z,952.08
2017-09-13T11:40:39.051Z,951.95
2017-09-13T11:41:39.081Z,951.98
2017-09-13T11:42:39.151Z,952.03
2017-09-13T11:43:39.127Z,951.99
2017-09-13T11:44:39.152Z,952
2017-09-13T11:45:39.176Z,951.78
2017-09-13T11:46:39.203Z,952.03
2017-09-13T11:47:39.224Z,951.91
2017-09-13T11:48:39.249Z,951.78
2017-09-13T11:49:39.273Z,951.76
2017-09-13T11:50:39.296Z,952.09
2017-09-13T11:51:39.324Z,951.8
2017-09-13T11:52:39.355Z,951.79
2017-09-13T11:53:39.372Z,951.77
2017-09-13T11:54:39.397Z,951.8
2017-09-13T11:55:39.423Z,951.86
2017-09-13T11:56:39.448Z,951.73
2017-09-13T11:57:39.471Z,951.81
2017-09-13T11:58:39.494Z,951.86
2017-09-13T11:59:39.521Z,951.82
2017-09-13T12:00:39.595Z,951.78
2017-09-13T12:01:39.572Z,951.97
2017-09-13T12:02:39.596Z,951.96
2017-09-13T12:03:39.625Z,951.76
2017-09-13T12:04:39.648Z,951.76
2017-09-13T12:05:39.678Z,952.01
2017-09-13T12:06:39.698Z,951.98
2017-09-13T12:07:39.727Z,951.89
2017-09-13T12:08:39.742Z,951.92
2017-09-13T12:09:39.767Z,951.39
2017-09-13T12:10:39.791Z,952.02
2017-09-13T12:11:39.831Z,952
2017-09-13T12:12:39.844Z,951.92
2017-09-13T12:13:39.876Z,952.01
2017-09-13T12:14:39.889Z,952.14
2017-09-13T12:15:39.918Z,952.23
2017-09-13T12:16:39.939Z,952.21
2017-09-13T12:17:40.017Z,952.03
2017-09-13T12:18:39.998Z,952.19
2017-09-13T12:19:40.020Z,952.05
2017-09-13T12:20:40.047Z,952.13
2017-09-13T12:21:40.073Z,952.41
2017-09-13T12:22:40.099Z,952.28
2017-09-13T12:23:40.124Z,952.41
2017-09-13T12:24:40.146Z,952.04
2017-09-13T12:25:40.176Z,952.12
2017-09-13T12:26:40.202Z,952.25
2017-09-13T12:27:40.226Z,952.22
2017-09-13T12:28:40.255Z,952.23
2017-09-13T12:29:40.278Z,952.16
2017-09-13T12:30:40.301Z,952.19
2017-09-13T12:31:40.333Z,952.12